Poughkeepsie, NY (12601)

2:25 AM EDT en Mayo 01, 2017 (GMT -0400)
Fairview 2 | | Change Station

Alt 279 ft 41.73 °N, 73.91 °W | Updated 12 seconds ago

Nublado
Nublado
49.7 ° F
Sensación térmica 50 ° F
N
0.0
Viento Variable Viento desde SE
Gusts 1.0 mph

Hoy
Alta -- | Baja -- ° F
--% Posibilidad de precipitaciones
Ayer
Alta -- | Baja -- ° F
Precip. -- pul
Presión 30.11 pul
Visibilidad 10.0 Millas
Nubes Nublado 2400 ft
Vientos helados 50 ° F
Punto de rocío 42 ° F
Humedad 74%
Precipitaciones 0.00 pul
Espesor de la nieve No disponible.
5:51 AM 7:54 PM
Creciente, 30% visible
METAR KPOU 010553Z 13006KT 10SM OVC024 10/04 A3011 RMK AO2 SLP194 T01000039 10133 20100 58013
Presión 30.11 pul
Visibilidad 10.0 Millas
Nubes Nublado 2400 ft
Vientos helados 50 ° F
Punto de rocío 42 ° F
Humedad 74%
Precipitaciones 0.00 pul
Espesor de la nieve No disponible.
5:51 AM 7:54 PM
Creciente, 30% visible
METAR KPOU 010553Z 13006KT 10SM OVC024 10/04 A3011 RMK AO2 SLP194 T01000039 10133 20100 58013

Get Severe Weather Alerts

Thanks for signing up!

Be on the lookout for a verification email in your inbox.

You'll start receiving the daily forecast at 8 AM.

×

10-Day Weather Forecast

Almanac

Astronomía

May. 01, 2017 Salida Puesta
Hora real
Crepúsculo civil
Crepúsculo náutico
Crepúsculo astronómico
Luna
Horas de luz
Horas de luz
Tomorrow will be .
, % of the Moon is Illuminated

Extremos de hoy

Máximos del estado Bajos del estado

Community

WunderPhotos

WunderBlog® & News

Nearby

Calidad del aire

  Calidad del aire Índice AQ Contaminante
Not available.

Grosos de nieve

Estación Profundido Altura

Actividad de terremotos

Ciudad Distance Mag. Tiempo y dato
Magnitud mínima muestra es 2,5.

Temperaturas de aguas costeras

Lugar Temperatura

Stations

Estaciones meteorológicas cercanas

Ubicación de la estación Temp. Vientos helados Punto de rocío Humedad Viento Precip. Alt Actualizado Tipo
                   

Watches & Warnings

There are currently no watches in effect.